sensor_id;sensor_type;location;lat;lon;timestamp;pressure;altitude;pressure_sealevel;temperature;humidity
64889;BME280;51386;53.082;8.816;2023-05-01T00:01:52;101904.53;;;15.15;44.08
64889;BME280;51386;53.082;8.816;2023-05-01T00:04:19;101893.28;;;15.13;44.12
64889;BME280;51386;53.082;8.816;2023-05-01T00:06:48;101897.94;;;15.11;44.23
64889;BME280;51386;53.082;8.816;2023-05-01T00:09:15;101888.50;;;15.08;44.21
64889;BME280;51386;53.082;8.816;2023-05-01T00:11:42;101888.06;;;15.05;44.36
64889;BME280;51386;53.082;8.816;2023-05-01T00:14:09;101882.06;;;15.03;44.13
64889;BME280;51386;53.082;8.816;2023-05-01T00:16:35;101874.50;;;15.00;44.07
64889;BME280;51386;53.082;8.816;2023-05-01T00:19:04;101874.19;;;14.95;43.92
64889;BME280;51386;53.082;8.816;2023-05-01T00:21:31;101877.16;;;14.91;44.17
64889;BME280;51386;53.082;8.816;2023-05-01T00:23:58;101873.88;;;14.89;44.17
64889;BME280;51386;53.082;8.816;2023-05-01T00:26:25;101869.75;;;14.87;44.20
64889;BME280;51386;53.082;8.816;2023-05-01T00:28:56;101870.91;;;14.84;44.22
64889;BME280;51386;53.082;8.816;2023-05-01T00:31:24;101870.28;;;14.82;44.31
64889;BME280;51386;53.082;8.816;2023-05-01T00:33:52;101869.44;;;14.82;44.26
64889;BME280;51386;53.082;8.816;2023-05-01T00:36:20;101864.97;;;14.82;44.46
64889;BME280;51386;53.082;8.816;2023-05-01T00:38:47;101868.47;;;14.83;44.20
64889;BME280;51386;53.082;8.816;2023-05-01T00:41:14;101856.19;;;14.82;44.50
64889;BME280;51386;53.082;8.816;2023-05-01T00:43:41;101858.00;;;14.81;44.33
64889;BME280;51386;53.082;8.816;2023-05-01T00:46:08;101861.69;;;14.80;44.15
64889;BME280;51386;53.082;8.816;2023-05-01T00:48:36;101856.53;;;14.79;44.44
64889;BME280;51386;53.082;8.816;2023-05-01T00:51:06;101853.41;;;14.75;44.31
64889;BME280;51386;53.082;8.816;2023-05-01T00:53:35;101852.78;;;14.73;44.26
64889;BME280;51386;53.082;8.816;2023-05-01T00:56:02;101852.09;;;14.71;44.42
64889;BME280;51386;53.082;8.816;2023-05-01T00:58:30;101840.69;;;14.71;44.59
64889;BME280;51386;53.082;8.816;2023-05-01T01:00:57;101847.47;;;14.73;44.68
64889;BME280;51386;53.082;8.816;2023-05-01T01:03:24;101843.81;;;14.74;44.31
64889;BME280;51386;53.082;8.816;2023-05-01T01:05:56;101840.50;;;14.72;44.20
64889;BME280;51386;53.082;8.816;2023-05-01T01:08:32;101841.69;;;14.70;44.15
64889;BME280;51386;53.082;8.816;2023-05-01T01:11:16;101835.91;;;14.66;44.04
64889;BME280;51386;53.082;8.816;2023-05-01T01:13:59;101832.59;;;14.64;44.06
64889;BME280;51386;53.082;8.816;2023-05-01T01:16:38;101831.28;;;14.60;44.00
64889;BME280;51386;53.082;8.816;2023-05-01T01:22:25;101828.53;;;14.54;44.10
64889;BME280;51386;53.082;8.816;2023-05-01T01:25:36;101825.75;;;14.47;44.21
64889;BME280;51386;53.082;8.816;2023-05-01T01:28:27;101826.91;;;14.45;44.31
64889;BME280;51386;53.082;8.816;2023-05-01T01:31:13;101823.44;;;14.44;44.36
64889;BME280;51386;53.082;8.816;2023-05-01T01:33:59;101812.19;;;14.42;44.33
64889;BME280;51386;53.082;8.816;2023-05-01T01:36:39;101813.81;;;14.43;44.59
64889;BME280;51386;53.082;8.816;2023-05-01T01:39:23;101812.19;;;14.42;44.36
64889;BME280;51386;53.082;8.816;2023-05-01T01:41:56;101805.06;;;14.43;44.06
64889;BME280;51386;53.082;8.816;2023-05-01T01:44:32;101806.25;;;14.40;44.74
64889;BME280;51386;53.082;8.816;2023-05-01T01:47:05;101798.28;;;14.40;44.17
64889;BME280;51386;53.082;8.816;2023-05-01T01:49:41;101790.50;;;14.39;44.25
64889;BME280;51386;53.082;8.816;2023-05-01T01:52:11;101794.16;;;14.38;44.11
64889;BME280;51386;53.082;8.816;2023-05-01T01:54:45;101790.03;;;14.35;44.03
64889;BME280;51386;53.082;8.816;2023-05-01T01:57:17;101788.38;;;14.34;43.88
64889;BME280;51386;53.082;8.816;2023-05-01T01:59:46;101783.41;;;14.31;43.83
64889;BME280;51386;53.082;8.816;2023-05-01T02:02:17;101781.78;;;14.30;43.53
64889;BME280;51386;53.082;8.816;2023-05-01T02:04:48;101771.50;;;14.27;43.32
64889;BME280;51386;53.082;8.816;2023-05-01T02:07:18;101771.84;;;14.24;43.36
64889;BME280;51386;53.082;8.816;2023-05-01T02:09:48;101768.53;;;14.22;43.28
64889;BME280;51386;53.082;8.816;2023-05-01T02:12:18;101769.72;;;14.19;43.21
64889;BME280;51386;53.082;8.816;2023-05-01T02:14:47;101772.53;;;14.18;43.14
64889;BME280;51386;53.082;8.816;2023-05-01T02:17:19;101759.47;;;14.16;43.10
64889;BME280;51386;53.082;8.816;2023-05-01T02:19:49;101763.94;;;14.16;42.92
64889;BME280;51386;53.082;8.816;2023-05-01T02:22:20;101760.28;;;14.17;42.75
64889;BME280;51386;53.082;8.816;2023-05-01T02:24:48;101760.28;;;14.17;42.76
64889;BME280;51386;53.082;8.816;2023-05-01T02:27:22;101759.63;;;14.15;42.70
64889;BME280;51386;53.082;8.816;2023-05-01T02:29:50;101750.84;;;14.14;42.48
64889;BME280;51386;53.082;8.816;2023-05-01T02:32:18;101753.50;;;14.14;42.37
64889;BME280;51386;53.082;8.816;2023-05-01T02:34:45;101759.63;;;14.15;42.43
64889;BME280;51386;53.082;8.816;2023-05-01T02:37:14;101748.06;;;14.16;42.36
64889;BME280;51386;53.082;8.816;2023-05-01T02:39:42;101748.06;;;14.16;42.22
64889;BME280;51386;53.082;8.816;2023-05-01T02:42:10;101741.75;;;14.17;42.15
64889;BME280;51386;53.082;8.816;2023-05-01T02:44:45;101734.00;;;14.15;41.85
64889;BME280;51386;53.082;8.816;2023-05-01T02:47:18;101741.94;;;14.15;41.85
64889;BME280;51386;53.082;8.816;2023-05-01T02:49:47;101737.47;;;14.16;41.84
64889;BME280;51386;53.082;8.816;2023-05-01T02:52:18;101747.03;;;14.17;41.92
64889;BME280;51386;53.082;8.816;2023-05-01T02:54:46;101731.00;;;14.18;41.75
64889;BME280;51386;53.082;8.816;2023-05-01T02:57:15;101726.53;;;14.19;41.31
64889;BME280;51386;53.082;8.816;2023-05-01T02:59:42;101714.28;;;14.18;41.36
64889;BME280;51386;53.082;8.816;2023-05-01T03:02:09;101715.13;;;14.18;41.09
64889;BME280;51386;53.082;8.816;2023-05-01T03:04:37;101712.47;;;14.18;41.33
64889;BME280;51386;53.082;8.816;2023-05-01T03:07:04;101701.69;;;14.20;41.32
64889;BME280;51386;53.082;8.816;2023-05-01T03:09:32;101706.00;;;14.21;41.28
64889;BME280;51386;53.082;8.816;2023-05-01T03:11:59;101703.34;;;14.21;41.37
64889;BME280;51386;53.082;8.816;2023-05-01T03:14:26;101698.84;;;14.21;41.32
64889;BME280;51386;53.082;8.816;2023-05-01T03:16:54;101693.56;;;14.21;41.25
64889;BME280;51386;53.082;8.816;2023-05-01T03:19:21;101690.28;;;14.19;41.01
64889;BME280;51386;53.082;8.816;2023-05-01T03:21:48;101686.97;;;14.17;40.99
64889;BME280;51386;53.082;8.816;2023-05-01T03:24:15;101691.44;;;14.17;41.29
64889;BME280;51386;53.082;8.816;2023-05-01T03:26:43;101688.78;;;14.17;41.03
64889;BME280;51386;53.082;8.816;2023-05-01T03:29:10;101677.56;;;14.15;41.26
64889;BME280;51386;53.082;8.816;2023-05-01T03:31:39;101680.84;;;14.17;41.12
64889;BME280;51386;53.082;8.816;2023-05-01T03:34:05;101680.69;;;14.18;41.11
64889;BME280;51386;53.082;8.816;2023-05-01T03:36:33;101677.84;;;14.20;40.99
64889;BME280;51386;53.082;8.816;2023-05-01T03:39:00;101674.06;;;14.14;40.72
64889;BME280;51386;53.082;8.816;2023-05-01T03:41:27;101671.81;;;14.11;40.78
64889;BME280;51386;53.082;8.816;2023-05-01T03:43:55;101676.44;;;14.09;40.81
64889;BME280;51386;53.082;8.816;2023-05-01T03:46:22;101673.13;;;14.07;40.90
64889;BME280;51386;53.082;8.816;2023-05-01T03:48:49;101662.72;;;14.06;40.99
64889;BME280;51386;53.082;8.816;2023-05-01T03:51:16;101661.88;;;14.05;40.91
64889;BME280;51386;53.082;8.816;2023-05-01T03:53:43;101662.06;;;14.04;40.93
64889;BME280;51386;53.082;8.816;2023-05-01T03:56:11;101655.50;;;14.00;40.68
64889;BME280;51386;53.082;8.816;2023-05-01T03:58:37;101654.81;;;13.98;40.92
64889;BME280;51386;53.082;8.816;2023-05-01T04:01:06;101649.91;;;13.95;41.10
64889;BME280;51386;53.082;8.816;2023-05-01T04:03:33;101655.53;;;13.92;41.02
64889;BME280;51386;53.082;8.816;2023-05-01T04:06:00;101655.53;;;13.92;41.10
64889;BME280;51386;53.082;8.816;2023-05-01T04:08:27;101652.38;;;13.88;41.21
64889;BME280;51386;53.082;8.816;2023-05-01T04:10:54;101655.88;;;13.89;41.31
64889;BME280;51386;53.082;8.816;2023-05-01T04:13:21;101656.69;;;13.89;41.18
64889;BME280;51386;53.082;8.816;2023-05-01T04:15:47;101652.88;;;13.92;41.31
64889;BME280;51386;53.082;8.816;2023-05-01T04:18:16;101652.38;;;13.88;41.20
64889;BME280;51386;53.082;8.816;2023-05-01T04:20:43;101658.19;;;13.84;41.07
64889;BME280;51386;53.082;8.816;2023-05-01T04:23:10;101651.63;;;13.80;41.24
64889;BME280;51386;53.082;8.816;2023-05-01T04:25:38;101651.16;;;13.76;41.43
64889;BME280;51386;53.082;8.816;2023-05-01T04:28:05;101654.59;;;13.77;41.38
64889;BME280;51386;53.082;8.816;2023-05-01T04:30:32;101651.47;;;13.73;41.38
64889;BME280;51386;53.082;8.816;2023-05-01T04:32:59;101661.56;;;13.70;41.46
64889;BME280;51386;53.082;8.816;2023-05-01T04:35:28;101650.41;;;13.60;41.83
64889;BME280;51386;53.082;8.816;2023-05-01T04:37:55;101646.28;;;13.57;41.80
64889;BME280;51386;53.082;8.816;2023-05-01T04:40:22;101640.78;;;13.58;41.91
64889;BME280;51386;53.082;8.816;2023-05-01T04:42:49;101636.69;;;13.56;41.98
64889;BME280;51386;53.082;8.816;2023-05-01T04:45:16;101632.22;;;13.48;41.90
64889;BME280;51386;53.082;8.816;2023-05-01T04:47:43;101634.22;;;13.46;42.00
64889;BME280;51386;53.082;8.816;2023-05-01T04:50:10;101629.28;;;13.43;41.91
64889;BME280;51386;53.082;8.816;2023-05-01T04:52:39;101632.94;;;13.42;41.98
64889;BME280;51386;53.082;8.816;2023-05-01T04:55:08;101630.75;;;13.46;42.06
64889;BME280;51386;53.082;8.816;2023-05-01T04:57:35;101629.44;;;13.50;42.29
64889;BME280;51386;53.082;8.816;2023-05-01T05:00:03;101627.91;;;13.55;41.99
64889;BME280;51386;53.082;8.816;2023-05-01T05:02:30;101623.56;;;13.63;42.17
64889;BME280;51386;53.082;8.816;2023-05-01T05:04:58;101618.91;;;13.73;41.97
64889;BME280;51386;53.082;8.816;2023-05-01T05:07:24;101623.16;;;13.82;41.61
64889;BME280;51386;53.082;8.816;2023-05-01T05:09:53;101625.75;;;13.90;41.61
64889;BME280;51386;53.082;8.816;2023-05-01T05:12:20;101621.09;;;14.00;41.77
64889;BME280;51386;53.082;8.816;2023-05-01T05:14:47;101617.06;;;14.04;41.39
64889;BME280;51386;53.082;8.816;2023-05-01T05:17:14;101625.31;;;14.09;41.18
64889;BME280;51386;53.082;8.816;2023-05-01T05:19:41;101619.31;;;14.15;41.12
64889;BME280;51386;53.082;8.816;2023-05-01T05:22:08;101621.91;;;14.23;41.26
64889;BME280;51386;53.082;8.816;2023-05-01T05:24:35;101623.03;;;14.29;40.90
64889;BME280;51386;53.082;8.816;2023-05-01T05:27:04;101617.69;;;14.37;40.87
64889;BME280;51386;53.082;8.816;2023-05-01T05:29:32;101618.63;;;14.44;40.76
64889;BME280;51386;53.082;8.816;2023-05-01T05:32:00;101615.00;;;14.45;40.10
64889;BME280;51386;53.082;8.816;2023-05-01T05:34:27;101617.47;;;14.46;40.02
64889;BME280;51386;53.082;8.816;2023-05-01T05:36:54;101612.16;;;14.46;39.88
64889;BME280;51386;53.082;8.816;2023-05-01T05:39:21;101610.16;;;14.48;39.73
64889;BME280;51386;53.082;8.816;2023-05-01T05:41:49;101606.50;;;14.49;39.74
64889;BME280;51386;53.082;8.816;2023-05-01T05:44:20;101601.50;;;14.54;39.68
64889;BME280;51386;53.082;8.816;2023-05-01T05:46:47;101599.00;;;14.53;39.93
64889;BME280;51386;53.082;8.816;2023-05-01T05:49:14;101598.84;;;14.54;39.59
64889;BME280;51386;53.082;8.816;2023-05-01T05:51:41;101598.13;;;14.60;39.68
64889;BME280;51386;53.082;8.816;2023-05-01T05:54:08;101599.41;;;14.64;39.50
64889;BME280;51386;53.082;8.816;2023-05-01T05:56:35;101604.00;;;14.70;39.37
64889;BME280;51386;53.082;8.816;2023-05-01T05:59:02;101595.31;;;14.62;39.28
64889;BME280;51386;53.082;8.816;2023-05-01T06:01:31;101599.06;;;14.67;39.25
64889;BME280;51386;53.082;8.816;2023-05-01T06:03:58;101587.00;;;14.79;39.00
64889;BME280;51386;53.082;8.816;2023-05-01T06:06:25;101588.84;;;14.93;39.15
64889;BME280;51386;53.082;8.816;2023-05-01T06:08:53;101588.31;;;15.13;38.71
64889;BME280;51386;53.082;8.816;2023-05-01T06:11:20;101584.81;;;15.27;38.29
64889;BME280;51386;53.082;8.816;2023-05-01T06:13:47;101588.59;;;15.32;38.02
64889;BME280;51386;53.082;8.816;2023-05-01T06:16:14;101586.75;;;15.33;38.16
64889;BME280;51386;53.082;8.816;2023-05-01T06:18:43;101580.06;;;15.37;37.97
64889;BME280;51386;53.082;8.816;2023-05-01T06:21:12;101584.28;;;15.46;38.09
64889;BME280;51386;53.082;8.816;2023-05-01T06:23:39;101580.91;;;15.52;38.28
64889;BME280;51386;53.082;8.816;2023-05-01T06:26:06;101581.97;;;15.57;38.06
64889;BME280;51386;53.082;8.816;2023-05-01T06:28:33;101581.31;;;15.70;37.79
64889;BME280;51386;53.082;8.816;2023-05-01T06:31:00;101582.91;;;15.86;37.95
64889;BME280;51386;53.082;8.816;2023-05-01T06:33:27;101582.59;;;15.95;37.29
64889;BME280;51386;53.082;8.816;2023-05-01T06:35:56;101569.47;;;16.08;37.26
64889;BME280;51386;53.082;8.816;2023-05-01T06:38:25;101575.03;;;16.13;37.19
64889;BME280;51386;53.082;8.816;2023-05-01T06:40:52;101569.41;;;16.23;37.26
64889;BME280;51386;53.082;8.816;2023-05-01T06:43:20;101577.06;;;16.33;36.99
64889;BME280;51386;53.082;8.816;2023-05-01T06:45:46;101566.47;;;16.39;36.97
64889;BME280;51386;53.082;8.816;2023-05-01T06:48:13;101572.22;;;16.43;36.57
64889;BME280;51386;53.082;8.816;2023-05-01T06:50:40;101556.72;;;16.46;36.76
64889;BME280;51386;53.082;8.816;2023-05-01T06:53:09;101562.72;;;16.55;36.67
64889;BME280;51386;53.082;8.816;2023-05-01T06:55:36;101563.44;;;16.63;37.08
64889;BME280;51386;53.082;8.816;2023-05-01T06:58:02;101558.97;;;16.70;36.40
64889;BME280;51386;53.082;8.816;2023-05-01T07:00:49;101551.03;;;16.77;36.51
64889;BME280;51386;53.082;8.816;2023-05-01T07:03:16;101552.13;;;16.89;36.65
64889;BME280;51386;53.082;8.816;2023-05-01T07:05:43;101552.84;;;17.04;36.57
64889;BME280;51386;53.082;8.816;2023-05-01T07:08:11;101542.06;;;17.19;36.19
64889;BME280;51386;53.082;8.816;2023-05-01T07:10:40;101543.31;;;17.23;36.23
64889;BME280;51386;53.082;8.816;2023-05-01T07:13:08;101542.50;;;17.29;36.09
64889;BME280;51386;53.082;8.816;2023-05-01T07:15:35;101541.31;;;17.38;36.02
64889;BME280;51386;53.082;8.816;2023-05-01T07:18:03;101544.69;;;17.53;35.76
64889;BME280;51386;53.082;8.816;2023-05-01T07:20:32;101539.81;;;17.63;35.73
64889;BME280;51386;53.082;8.816;2023-05-01T07:23:00;101539.44;;;17.73;35.58
64889;BME280;51386;53.082;8.816;2023-05-01T07:25:28;101532.88;;;17.82;35.19
64889;BME280;51386;53.082;8.816;2023-05-01T07:27:55;101540.66;;;17.70;35.34
64889;BME280;51386;53.082;8.816;2023-05-01T07:30:22;101533.47;;;17.71;35.41
64889;BME280;51386;53.082;8.816;2023-05-01T07:32:49;101528.38;;;17.76;35.41
64889;BME280;51386;53.082;8.816;2023-05-01T07:35:17;101526.28;;;17.71;35.53
64889;BME280;51386;53.082;8.816;2023-05-01T07:37:44;101526.94;;;17.80;35.57
64889;BME280;51386;53.082;8.816;2023-05-01T07:40:11;101524.72;;;18.29;34.99
64889;BME280;51386;53.082;8.816;2023-05-01T07:42:39;101523.34;;;19.17;34.22
64889;BME280;51386;53.082;8.816;2023-05-01T07:45:07;101515.34;;;20.23;33.06
64889;BME280;51386;53.082;8.816;2023-05-01T07:47:34;101519.31;;;21.18;29.80
64889;BME280;51386;53.082;8.816;2023-05-01T07:50:02;101515.69;;;22.02;29.78
64889;BME280;51386;53.082;8.816;2023-05-01T07:52:30;101516.19;;;22.92;28.11
64889;BME280;51386;53.082;8.816;2023-05-01T07:54:57;101506.22;;;23.72;26.87
64889;BME280;51386;53.082;8.816;2023-05-01T07:57:24;101505.44;;;24.04;26.28
64889;BME280;51386;53.082;8.816;2023-05-01T07:59:54;101506.84;;;24.78;26.13
64889;BME280;51386;53.082;8.816;2023-05-01T08:02:22;101503.84;;;25.67;24.54
64889;BME280;51386;53.082;8.816;2023-05-01T08:04:50;101503.91;;;26.35;22.93
64889;BME280;51386;53.082;8.816;2023-05-01T08:07:17;101496.78;;;26.66;22.92
64889;BME280;51386;53.082;8.816;2023-05-01T08:09:45;101496.09;;;26.85;23.06
64889;BME280;51386;53.082;8.816;2023-05-01T08:12:12;101498.34;;;27.09;22.43
64889;BME280;51386;53.082;8.816;2023-05-01T08:14:39;101489.16;;;27.15;22.76
64889;BME280;51386;53.082;8.816;2023-05-01T08:17:07;101492.47;;;27.37;21.51
64889;BME280;51386;53.082;8.816;2023-05-01T08:19:34;101493.63;;;27.51;21.86
64889;BME280;51386;53.082;8.816;2023-05-01T08:22:01;101483.91;;;27.75;22.01
64889;BME280;51386;53.082;8.816;2023-05-01T08:24:28;101485.81;;;27.85;20.95
64889;BME280;51386;53.082;8.816;2023-05-01T08:26:55;101492.31;;;28.04;21.54
64889;BME280;51386;53.082;8.816;2023-05-01T08:29:22;101482.31;;;28.14;21.12
64889;BME280;51386;53.082;8.816;2023-05-01T08:31:52;101487.16;;;28.28;21.05
64889;BME280;51386;53.082;8.816;2023-05-01T08:34:20;101483.06;;;28.45;20.53
64889;BME280;51386;53.082;8.816;2023-05-01T08:36:48;101481.72;;;28.28;20.87
64889;BME280;51386;53.082;8.816;2023-05-01T08:39:15;101477.88;;;28.64;21.35
64889;BME280;51386;53.082;8.816;2023-05-01T08:41:45;101480.09;;;29.21;20.20
64889;BME280;51386;53.082;8.816;2023-05-01T08:44:13;101479.09;;;29.45;20.54
64889;BME280;51386;53.082;8.816;2023-05-01T08:46:47;101479.16;;;29.74;20.15
64889;BME280;51386;53.082;8.816;2023-05-01T08:49:20;101482.56;;;29.95;19.36
64889;BME280;51386;53.082;8.816;2023-05-01T08:51:50;101476.88;;;29.91;19.51
64889;BME280;51386;53.082;8.816;2023-05-01T08:54:20;101472.56;;;29.90;19.78
64889;BME280;51386;53.082;8.816;2023-05-01T08:56:49;101472.31;;;29.87;19.59
64889;BME280;51386;53.082;8.816;2023-05-01T08:59:17;101468.63;;;29.68;19.42
64889;BME280;51386;53.082;8.816;2023-05-01T09:01:47;101457.78;;;29.68;19.91
64889;BME280;51386;53.082;8.816;2023-05-01T09:04:16;101450.09;;;29.80;20.50
64889;BME280;51386;53.082;8.816;2023-05-01T09:06:44;101454.28;;;29.96;19.60
64889;BME280;51386;53.082;8.816;2023-05-01T09:09:12;101453.13;;;29.34;19.59
64889;BME280;51386;53.082;8.816;2023-05-01T09:11:39;101448.88;;;29.23;20.38
64889;BME280;51386;53.082;8.816;2023-05-01T09:14:06;101450.38;;;29.44;19.73
64889;BME280;51386;53.082;8.816;2023-05-01T09:16:34;101441.72;;;29.37;20.00
64889;BME280;51386;53.082;8.816;2023-05-01T09:19:02;101447.34;;;29.07;20.24
64889;BME280;51386;53.082;8.816;2023-05-01T09:21:29;101453.47;;;28.74;20.40
64889;BME280;51386;53.082;8.816;2023-05-01T09:23:59;101449.69;;;28.65;20.47
64889;BME280;51386;53.082;8.816;2023-05-01T09:26:26;101453.75;;;28.67;20.71
64889;BME280;51386;53.082;8.816;2023-05-01T09:28:53;101434.66;;;28.93;20.50
64889;BME280;51386;53.082;8.816;2023-05-01T09:31:26;101452.97;;;29.21;20.23
64889;BME280;51386;53.082;8.816;2023-05-01T09:34:01;101447.78;;;29.24;20.09
64889;BME280;51386;53.082;8.816;2023-05-01T09:36:30;101450.88;;;29.46;20.15
64889;BME280;51386;53.082;8.816;2023-05-01T09:39:01;101443.13;;;29.69;19.78
64889;BME280;51386;53.082;8.816;2023-05-01T09:41:30;101443.34;;;30.06;19.66
64889;BME280;51386;53.082;8.816;2023-05-01T09:43:59;101437.66;;;30.02;20.14
64889;BME280;51386;53.082;8.816;2023-05-01T09:46:40;101449.63;;;30.30;19.48
64889;BME280;51386;53.082;8.816;2023-05-01T09:49:09;101448.38;;;30.46;18.78
64889;BME280;51386;53.082;8.816;2023-05-01T09:51:36;101438.19;;;30.57;18.88
64889;BME280;51386;53.082;8.816;2023-05-01T09:54:16;101438.94;;;30.81;18.79
64889;BME280;51386;53.082;8.816;2023-05-01T09:56:46;101438.75;;;30.77;18.80
64889;BME280;51386;53.082;8.816;2023-05-01T09:59:16;101435.69;;;30.60;19.55
64889;BME280;51386;53.082;8.816;2023-05-01T10:01:46;101431.50;;;30.49;19.34
64889;BME280;51386;53.082;8.816;2023-05-01T10:04:15;101428.94;;;30.58;18.98
64889;BME280;51386;53.082;8.816;2023-05-01T10:06:42;101420.22;;;30.79;19.53
64889;BME280;51386;53.082;8.816;2023-05-01T10:09:10;101426.09;;;30.87;19.02
64889;BME280;51386;53.082;8.816;2023-05-01T10:11:47;101427.78;;;31.06;18.91
64889;BME280;51386;53.082;8.816;2023-05-01T10:14:14;101421.00;;;31.22;19.38
64889;BME280;51386;53.082;8.816;2023-05-01T10:16:42;101419.38;;;31.40;18.53
64889;BME280;51386;53.082;8.816;2023-05-01T10:19:09;101410.78;;;31.65;18.84
64889;BME280;51386;53.082;8.816;2023-05-01T10:21:36;101409.91;;;31.70;18.31
64889;BME280;51386;53.082;8.816;2023-05-01T10:24:04;101412.44;;;31.66;18.68
64889;BME280;51386;53.082;8.816;2023-05-01T10:26:36;101410.28;;;31.63;18.22
64889;BME280;51386;53.082;8.816;2023-05-01T10:29:04;101412.66;;;31.83;19.05
64889;BME280;51386;53.082;8.816;2023-05-01T10:31:30;101409.09;;;32.42;18.78
64889;BME280;51386;53.082;8.816;2023-05-01T10:33:59;101406.91;;;33.07;17.43
64889;BME280;51386;53.082;8.816;2023-05-01T10:36:35;101412.38;;;33.74;17.15
64889;BME280;51386;53.082;8.816;2023-05-01T10:39:03;101407.13;;;33.86;16.42
64889;BME280;51386;53.082;8.816;2023-05-01T10:42:05;101409.84;;;33.55;16.46
64889;BME280;51386;53.082;8.816;2023-05-01T10:44:37;101409.44;;;33.26;16.52
64889;BME280;51386;53.082;8.816;2023-05-01T10:47:44;101396.84;;;33.16;16.37
64889;BME280;51386;53.082;8.816;2023-05-01T10:50:12;101408.47;;;33.44;16.57
64889;BME280;51386;53.082;8.816;2023-05-01T10:53:16;101400.09;;;33.63;16.71
64889;BME280;51386;53.082;8.816;2023-05-01T10:55:45;101398.59;;;33.79;16.53
64889;BME280;51386;53.082;8.816;2023-05-01T11:01:33;101388.91;;;34.51;15.96
64889;BME280;51386;53.082;8.816;2023-05-01T11:04:02;101381.25;;;34.70;16.18
64889;BME280;51386;53.082;8.816;2023-05-01T11:06:31;101377.06;;;34.82;16.04
64889;BME280;51386;53.082;8.816;2023-05-01T11:08:59;101366.13;;;34.99;15.68
64889;BME280;51386;53.082;8.816;2023-05-01T11:11:48;101362.91;;;35.14;15.80
64889;BME280;51386;53.082;8.816;2023-05-01T11:14:16;101360.16;;;34.80;15.30
64889;BME280;51386;53.082;8.816;2023-05-01T11:16:45;101352.91;;;34.66;15.57
64889;BME280;51386;53.082;8.816;2023-05-01T11:19:45;101361.19;;;34.27;16.20
64889;BME280;51386;53.082;8.816;2023-05-01T11:22:14;101364.91;;;34.40;15.98
64889;BME280;51386;53.082;8.816;2023-05-01T11:24:41;101354.69;;;34.54;16.01
64889;BME280;51386;53.082;8.816;2023-05-01T11:27:13;101359.13;;;34.41;16.17
64889;BME280;51386;53.082;8.816;2023-05-01T11:29:43;101344.63;;;34.41;16.42
64889;BME280;51386;53.082;8.816;2023-05-01T11:32:22;101350.63;;;34.51;16.09
64889;BME280;51386;53.082;8.816;2023-05-01T11:34:51;101352.28;;;34.87;15.95
64889;BME280;51386;53.082;8.816;2023-05-01T11:37:18;101350.34;;;35.21;16.02
64889;BME280;51386;53.082;8.816;2023-05-01T11:39:50;101346.66;;;35.17;15.63
64889;BME280;51386;53.082;8.816;2023-05-01T11:42:20;101341.66;;;34.94;15.68
64889;BME280;51386;53.082;8.816;2023-05-01T11:45:09;101346.47;;;34.62;15.51
64889;BME280;51386;53.082;8.816;2023-05-01T11:47:37;101348.94;;;34.16;16.03
64889;BME280;51386;53.082;8.816;2023-05-01T11:50:05;101341.03;;;34.06;15.97
64889;BME280;51386;53.082;8.816;2023-05-01T11:52:42;101335.94;;;33.91;16.06
64889;BME280;51386;53.082;8.816;2023-05-01T11:55:10;101334.50;;;33.85;16.25
64889;BME280;51386;53.082;8.816;2023-05-01T11:57:48;101333.03;;;34.27;15.69
64889;BME280;51386;53.082;8.816;2023-05-01T12:00:27;101332.78;;;34.54;15.49
64889;BME280;51386;53.082;8.816;2023-05-01T12:03:01;101327.78;;;34.99;15.32
64889;BME280;51386;53.082;8.816;2023-05-01T12:05:30;101318.00;;;35.70;14.67
64889;BME280;51386;53.082;8.816;2023-05-01T12:08:12;101317.28;;;36.40;14.56
64889;BME280;51386;53.082;8.816;2023-05-01T12:10:41;101322.69;;;36.78;14.08
64889;BME280;51386;53.082;8.816;2023-05-01T12:13:11;101310.22;;;36.80;13.98
64889;BME280;51386;53.082;8.816;2023-05-01T12:15:43;101310.91;;;36.77;14.56
64889;BME280;51386;53.082;8.816;2023-05-01T12:18:12;101313.72;;;36.48;14.64
64889;BME280;51386;53.082;8.816;2023-05-01T12:20:42;101318.19;;;36.03;14.95
64889;BME280;51386;53.082;8.816;2023-05-01T12:23:12;101303.56;;;35.35;15.17
64889;BME280;51386;53.082;8.816;2023-05-01T12:25:40;101303.81;;;34.61;15.80
64889;BME280;51386;53.082;8.816;2023-05-01T12:28:11;101301.69;;;34.41;16.16
64889;BME280;51386;53.082;8.816;2023-05-01T12:30:41;101299.56;;;34.38;16.02
64889;BME280;51386;53.082;8.816;2023-05-01T12:33:13;101295.56;;;34.27;16.19
64889;BME280;51386;53.082;8.816;2023-05-01T12:35:43;101291.22;;;34.35;15.80
64889;BME280;51386;53.082;8.816;2023-05-01T12:38:15;101295.06;;;34.34;16.02
64889;BME280;51386;53.082;8.816;2023-05-01T12:40:54;101297.00;;;34.25;16.33
64889;BME280;51386;53.082;8.816;2023-05-01T12:43:29;101279.97;;;33.80;16.68
64889;BME280;51386;53.082;8.816;2023-05-01T12:45:58;101280.13;;;33.75;16.70
64889;BME280;51386;53.082;8.816;2023-05-01T12:48:28;101284.97;;;33.95;16.96
64889;BME280;51386;53.082;8.816;2023-05-01T12:50:56;101274.50;;;34.28;16.60
64889;BME280;51386;53.082;8.816;2023-05-01T12:53:26;101272.41;;;34.50;16.17
64889;BME280;51386;53.082;8.816;2023-05-01T12:55:56;101271.75;;;34.45;15.75
64889;BME280;51386;53.082;8.816;2023-05-01T12:58:34;101279.00;;;34.41;15.93
64889;BME280;51386;53.082;8.816;2023-05-01T13:01:03;101276.88;;;34.29;16.34
64889;BME280;51386;53.082;8.816;2023-05-01T13:03:32;101269.88;;;33.89;16.28
64889;BME280;51386;53.082;8.816;2023-05-01T13:06:02;101274.25;;;33.28;16.86
64889;BME280;51386;53.082;8.816;2023-05-01T13:08:31;101261.34;;;32.76;17.33
64889;BME280;51386;53.082;8.816;2023-05-01T13:11:00;101264.72;;;32.37;17.67